createdAt,value
2018-02-20T00:02:16.224Z,21.63
2018-02-20T00:04:43.889Z,20.70
2018-02-20T00:07:11.411Z,20.97
2018-02-20T00:09:39.015Z,22.53
2018-02-20T00:12:06.636Z,21.30
2018-02-20T00:14:34.260Z,21.87
2018-02-20T00:17:01.868Z,21.67
2018-02-20T00:19:29.509Z,19.60
2018-02-20T00:21:57.183Z,22.40
2018-02-20T00:24:24.837Z,20.87
2018-02-20T00:26:52.419Z,21.53
2018-02-20T00:29:19.907Z,22.37
2018-02-20T00:31:47.482Z,21.37
2018-02-20T00:34:15.114Z,20.97
2018-02-20T00:36:42.768Z,20.13
2018-02-20T00:39:10.420Z,20.30
2018-02-20T00:41:38.082Z,19.77
2018-02-20T00:44:05.735Z,21.70
2018-02-20T00:46:33.322Z,17.90
2018-02-20T00:49:00.984Z,19.03
2018-02-20T00:51:28.634Z,19.87
2018-02-20T00:53:56.172Z,20.47
2018-02-20T00:56:23.708Z,19.73
2018-02-20T00:58:51.334Z,20.83
2018-02-20T01:01:18.927Z,20.40
2018-02-20T01:03:46.553Z,20.33
2018-02-20T01:06:14.153Z,20.17
2018-02-20T01:08:41.800Z,20.07
2018-02-20T01:11:09.319Z,22.03
2018-02-20T01:13:36.851Z,21.43
2018-02-20T01:16:04.447Z,20.83
2018-02-20T01:18:32.046Z,20.07
2018-02-20T01:20:59.637Z,18.80
2018-02-20T01:23:27.185Z,20.23
2018-02-20T01:25:54.815Z,21.00
2018-02-20T01:28:22.378Z,20.73
2018-02-20T01:30:49.992Z,20.33
2018-02-20T01:33:17.636Z,19.07
2018-02-20T01:35:45.160Z,20.03
2018-02-20T01:38:12.720Z,18.73
2018-02-20T01:40:40.353Z,19.70
2018-02-20T01:43:07.960Z,19.97
2018-02-20T01:45:35.595Z,18.50
2018-02-20T01:48:03.165Z,19.93
2018-02-20T01:50:30.753Z,19.70
2018-02-20T01:52:58.761Z,19.97
2018-02-20T01:55:26.731Z,19.80
2018-02-20T01:57:54.670Z,19.30
2018-02-20T02:00:22.249Z,20.03
2018-02-20T02:02:49.876Z,21.60
2018-02-20T02:05:17.440Z,19.60
2018-02-20T02:07:45.037Z,19.80
2018-02-20T02:10:12.712Z,19.27
2018-02-20T02:12:40.319Z,18.73
2018-02-20T02:15:07.856Z,19.83
2018-02-20T02:17:35.457Z,21.13
2018-02-20T02:20:03.452Z,18.87
2018-02-20T02:22:31.126Z,20.97
2018-02-20T02:24:58.765Z,19.57
2018-02-20T02:27:26.321Z,20.43
2018-02-20T02:29:53.993Z,18.43
2018-02-20T02:32:21.667Z,20.57
2018-02-20T02:34:49.308Z,19.27
2018-02-20T02:37:16.939Z,19.70
2018-02-20T02:39:44.515Z,20.27
2018-02-20T02:42:12.101Z,19.77
2018-02-20T02:44:39.624Z,19.07
2018-02-20T02:47:07.624Z,19.90
2018-02-20T02:49:35.234Z,20.17
2018-02-20T02:52:02.878Z,20.47
2018-02-20T02:54:30.511Z,18.63
2018-02-20T02:56:58.037Z,18.47
2018-02-20T02:59:25.640Z,19.30
2018-02-20T03:01:53.309Z,18.53
2018-02-20T03:04:20.841Z,18.40
2018-02-20T03:06:48.428Z,20.10
2018-02-20T03:09:16.081Z,19.03
2018-02-20T03:11:43.652Z,19.47
2018-02-20T03:14:11.200Z,20.60
2018-02-20T03:16:38.809Z,20.70
2018-02-20T03:19:06.779Z,19.57
2018-02-20T03:21:34.452Z,18.97
2018-02-20T03:24:02.146Z,18.57
2018-02-20T03:26:29.732Z,19.47
2018-02-20T03:28:57.325Z,18.83
2018-02-20T03:31:24.951Z,18.77
2018-02-20T03:33:52.598Z,18.07
2018-02-20T03:36:20.123Z,18.57
2018-02-20T03:38:47.731Z,18.80
2018-02-20T03:41:15.423Z,18.20
2018-02-20T03:43:42.995Z,18.27
2018-02-20T03:46:11.512Z,18.67
2018-02-20T03:48:39.109Z,18.73
2018-02-20T03:51:07.015Z,18.47
2018-02-20T03:53:34.594Z,17.53
2018-02-20T03:56:02.144Z,17.00
2018-02-20T03:58:29.757Z,17.70
2018-02-20T04:00:57.278Z,18.00
2018-02-20T04:03:24.826Z,18.27
2018-02-20T04:05:52.487Z,19.20
2018-02-20T04:08:20.101Z,18.13
2018-02-20T04:10:47.718Z,18.47
2018-02-20T04:13:15.335Z,18.07
2018-02-20T04:15:42.895Z,19.10
2018-02-20T04:18:10.501Z,18.00
2018-02-20T04:20:38.063Z,18.27
2018-02-20T04:23:07.089Z,18.53
2018-02-20T04:25:34.626Z,17.90
2018-02-20T04:28:02.622Z,18.67
2018-02-20T04:30:30.191Z,19.00
2018-02-20T04:32:57.796Z,17.87
2018-02-20T04:35:25.424Z,18.67
2018-02-20T04:37:53.064Z,18.33
2018-02-20T04:40:20.683Z,18.43
2018-02-20T04:42:48.257Z,18.50
2018-02-20T04:45:16.260Z,19.53
2018-02-20T04:47:43.882Z,19.20
2018-02-20T04:50:11.922Z,19.53
2018-02-20T04:52:39.540Z,19.93
2018-02-20T04:55:07.061Z,19.30
2018-02-20T04:57:34.723Z,18.03
2018-02-20T05:00:02.650Z,18.43
2018-02-20T05:02:30.942Z,19.93
2018-02-20T05:04:58.512Z,19.97
2018-02-20T05:07:26.053Z,19.00
2018-02-20T05:09:53.655Z,18.87
2018-02-20T05:12:21.635Z,18.77
2018-02-20T05:14:50.181Z,19.40
2018-02-20T05:17:17.808Z,18.20
2018-02-20T05:19:45.429Z,20.90
2018-02-20T05:22:13.447Z,18.10
2018-02-20T05:24:41.035Z,19.63
2018-02-20T05:27:08.662Z,19.70
2018-02-20T05:29:36.285Z,20.17
2018-02-20T05:32:03.908Z,22.53
2018-02-20T05:34:31.523Z,23.57
2018-02-20T05:36:59.104Z,23.77
2018-02-20T05:39:26.720Z,23.07
2018-02-20T05:41:55.116Z,23.37
2018-02-20T05:44:22.771Z,22.40
2018-02-20T05:46:50.396Z,23.50
2018-02-20T05:49:18.037Z,23.70
2018-02-20T05:51:45.590Z,21.27
2018-02-20T05:54:13.192Z,22.57
2018-02-20T05:56:40.796Z,23.17
2018-02-20T05:59:08.317Z,23.67
2018-02-20T06:01:35.957Z,23.30
2018-02-20T06:04:03.924Z,21.13
2018-02-20T06:06:31.942Z,21.90
2018-02-20T06:08:59.544Z,22.90
2018-02-20T06:11:27.206Z,19.07
2018-02-20T06:13:54.884Z,21.70
2018-02-20T06:16:22.892Z,20.73
2018-02-20T06:18:50.517Z,22.17
2018-02-20T06:21:18.120Z,21.87
2018-02-20T06:23:45.736Z,21.80
2018-02-20T06:26:13.365Z,21.53
2018-02-20T06:28:40.938Z,25.43
2018-02-20T06:31:08.965Z,24.13
2018-02-20T06:33:36.496Z,25.30
2018-02-20T06:36:04.119Z,25.70
2018-02-20T06:38:31.761Z,23.40
2018-02-20T06:40:59.399Z,25.83
2018-02-20T06:43:26.969Z,26.33
2018-02-20T06:45:54.617Z,24.90
2018-02-20T06:48:22.214Z,27.37
2018-02-20T06:50:49.825Z,26.37
2018-02-20T06:53:17.528Z,24.73
2018-02-20T06:55:45.151Z,26.37
2018-02-20T06:58:13.475Z,24.27
2018-02-20T07:00:41.053Z,24.50
2018-02-20T07:03:09.005Z,24.60
2018-02-20T07:05:36.644Z,24.50
2018-02-20T07:08:04.255Z,24.73
2018-02-20T07:10:31.905Z,25.47
2018-02-20T07:12:59.454Z,22.10
2018-02-20T07:15:27.427Z,24.97
2018-02-20T07:17:55.477Z,25.30
2018-02-20T07:20:23.056Z,24.17
2018-02-20T07:22:50.685Z,25.17
2018-02-20T07:25:18.280Z,24.13
2018-02-20T07:27:45.893Z,26.00
2018-02-20T07:30:13.532Z,26.63
2018-02-20T07:32:41.064Z,25.03
2018-02-20T07:35:08.685Z,27.03
2018-02-20T07:37:36.289Z,25.83
2018-02-20T07:40:03.882Z,25.70
2018-02-20T07:42:31.489Z,24.90
2018-02-20T07:44:59.106Z,27.00
2018-02-20T07:47:26.718Z,27.33
2018-02-20T07:49:58.012Z,26.77
2018-02-20T07:52:25.615Z,26.53
2018-02-20T07:54:53.274Z,24.83
2018-02-20T07:57:21.252Z,29.93
2018-02-20T07:59:48.813Z,26.93
2018-02-20T08:02:16.442Z,27.63
2018-02-20T08:04:44.453Z,25.30
2018-02-20T08:07:12.090Z,26.17
2018-02-20T08:09:39.727Z,24.47
2018-02-20T08:12:08.054Z,26.57
2018-02-20T08:14:35.690Z,25.57
2018-02-20T08:17:03.331Z,24.10
2018-02-20T08:19:30.943Z,25.37
2018-02-20T08:21:58.559Z,23.87
2018-02-20T08:24:26.104Z,23.97
2018-02-20T08:26:54.029Z,25.27
2018-02-20T08:29:21.661Z,23.97
2018-02-20T08:31:49.248Z,26.00
2018-02-20T08:34:16.864Z,26.80
2018-02-20T08:36:44.505Z,23.47
2018-02-20T08:39:12.046Z,24.87
2018-02-20T08:41:39.580Z,25.30
2018-02-20T08:44:07.303Z,24.43
2018-02-20T08:46:34.837Z,23.77
2018-02-20T08:49:02.404Z,22.50
2018-02-20T08:51:30.392Z,23.00
2018-02-20T08:53:58.023Z,21.93
2018-02-20T08:56:25.701Z,23.87
2018-02-20T08:58:53.312Z,23.47
2018-02-20T09:01:20.958Z,23.83
2018-02-20T09:03:48.556Z,22.80
2018-02-20T09:06:16.105Z,22.23
2018-02-20T09:08:43.711Z,25.63
2018-02-20T09:11:11.881Z,23.30
2018-02-20T09:13:39.447Z,25.37
2018-02-20T09:16:07.067Z,24.33
2018-02-20T09:18:34.693Z,22.77
2018-02-20T09:21:02.272Z,22.70
2018-02-20T09:23:29.901Z,21.27
2018-02-20T09:25:57.521Z,22.53
2018-02-20T09:28:25.552Z,24.03
2018-02-20T09:30:53.124Z,24.23
2018-02-20T09:33:20.744Z,23.87
2018-02-20T09:35:48.311Z,22.70
2018-02-20T09:38:15.903Z,22.20
2018-02-20T09:40:43.499Z,23.27
2018-02-20T09:43:11.183Z,23.77
2018-02-20T09:45:38.772Z,22.27
2018-02-20T09:48:06.934Z,24.20
2018-02-20T09:50:34.475Z,23.53
2018-02-20T09:53:02.028Z,24.27
2018-02-20T09:55:29.592Z,22.60
2018-02-20T09:57:57.173Z,23.57
2018-02-20T10:00:24.797Z,23.67
2018-02-20T10:02:52.411Z,23.77
2018-02-20T10:05:19.985Z,22.77
2018-02-20T10:07:48.036Z,22.37
2018-02-20T10:10:15.680Z,22.73
2018-02-20T10:12:43.359Z,23.97
2018-02-20T10:15:11.027Z,24.03
2018-02-20T10:17:38.640Z,22.93
2018-02-20T10:20:06.245Z,23.00
2018-02-20T10:22:33.922Z,22.80
2018-02-20T10:25:01.517Z,21.73
2018-02-20T10:27:29.111Z,22.00
2018-02-20T10:29:56.692Z,22.33
2018-02-20T10:32:24.284Z,21.27
2018-02-20T10:34:51.964Z,20.07
2018-02-20T10:37:19.606Z,20.80
2018-02-20T10:39:47.190Z,20.83
2018-02-20T10:42:14.820Z,18.93
2018-02-20T10:44:42.391Z,21.07
2018-02-20T10:47:10.032Z,19.23
2018-02-20T10:49:38.055Z,19.77
2018-02-20T10:52:05.655Z,20.67
2018-02-20T10:54:33.668Z,21.57
2018-02-20T10:57:01.288Z,19.80
2018-02-20T10:59:28.899Z,19.13
2018-02-20T11:01:56.523Z,19.50
2018-02-20T11:04:24.073Z,19.67
2018-02-20T11:06:51.904Z,19.53
2018-02-20T11:09:19.858Z,19.03
2018-02-20T11:11:47.440Z,20.17
2018-02-20T11:14:15.449Z,19.50
2018-02-20T11:16:44.389Z,20.57
2018-02-20T11:19:10.683Z,20.47
2018-02-20T11:21:38.317Z,19.00
2018-02-20T11:24:05.892Z,20.23
2018-02-20T11:26:33.576Z,19.40
2018-02-20T11:29:01.111Z,19.40
2018-02-20T11:31:28.781Z,17.37
2018-02-20T11:33:56.325Z,17.43
2018-02-20T11:36:23.903Z,17.70
2018-02-20T11:38:51.508Z,17.33
2018-02-20T11:41:19.550Z,17.93
2018-02-20T11:43:47.204Z,16.90
2018-02-20T11:46:14.754Z,18.77
2018-02-20T11:48:44.312Z,17.40
2018-02-20T11:51:11.908Z,17.47
2018-02-20T11:53:39.546Z,18.20
2018-02-20T11:56:07.133Z,17.30
2018-02-20T11:58:34.741Z,17.40
2018-02-20T12:01:02.353Z,19.17
2018-02-20T12:03:29.931Z,18.20
2018-02-20T12:05:57.530Z,18.37
2018-02-20T12:08:25.134Z,16.47
2018-02-20T12:10:52.785Z,16.67
2018-02-20T12:13:20.364Z,17.30
2018-02-20T12:15:47.974Z,16.17
2018-02-20T12:18:15.571Z,17.40
2018-02-20T12:20:43.172Z,16.53
2018-02-20T12:23:11.211Z,15.83
2018-02-20T12:25:38.750Z,15.70
2018-02-20T12:28:06.301Z,16.27
2018-02-20T12:30:33.847Z,15.80
2018-02-20T12:33:01.486Z,14.77
2018-02-20T12:35:29.151Z,14.60
2018-02-20T12:37:57.236Z,16.10
2018-02-20T12:40:24.797Z,15.83
2018-02-20T12:42:52.420Z,15.93
2018-02-20T12:45:23.126Z,14.70
2018-02-20T12:47:50.752Z,14.97
2018-02-20T12:50:18.373Z,14.27
2018-02-20T12:52:45.992Z,13.80
2018-02-20T12:55:14.304Z,14.63
2018-02-20T12:57:41.954Z,14.53
2018-02-20T13:00:09.556Z,14.83
2018-02-20T13:02:37.203Z,14.30
2018-02-20T13:05:04.795Z,14.83
2018-02-20T13:07:32.348Z,13.57
2018-02-20T13:10:00.004Z,14.80
2018-02-20T13:12:27.631Z,13.93
2018-02-20T13:14:55.951Z,13.53
2018-02-20T13:17:23.862Z,14.83
2018-02-20T13:19:51.440Z,14.27
2018-02-20T13:22:19.455Z,14.60
2018-02-20T13:24:47.039Z,13.13
2018-02-20T13:27:14.719Z,13.87
2018-02-20T13:29:42.724Z,14.73
2018-02-20T13:32:10.331Z,14.83
2018-02-20T13:34:38.360Z,14.90
2018-02-20T13:37:06.001Z,14.10
2018-02-20T13:39:33.617Z,14.00
2018-02-20T13:42:01.220Z,14.47
2018-02-20T13:44:28.812Z,15.73
2018-02-20T13:46:56.372Z,14.23
2018-02-20T13:49:23.931Z,14.43
2018-02-20T13:51:51.612Z,15.97
2018-02-20T13:54:19.201Z,14.67
2018-02-20T13:56:46.874Z,13.53
2018-02-20T13:59:14.517Z,13.50
2018-02-20T14:01:42.193Z,13.00
2018-02-20T14:04:09.863Z,13.93
2018-02-20T14:06:37.470Z,13.43
2018-02-20T14:09:05.138Z,14.23
2018-02-20T14:11:32.751Z,14.53
2018-02-20T14:14:00.370Z,13.27
2018-02-20T14:16:28.370Z,13.57
2018-02-20T14:18:55.948Z,13.80
2018-02-20T14:21:23.664Z,14.07
2018-02-20T14:23:51.792Z,13.07
2018-02-20T14:26:19.454Z,13.27
2018-02-20T14:28:47.110Z,14.70
2018-02-20T14:31:14.702Z,13.07
2018-02-20T14:33:42.315Z,13.73
2018-02-20T14:36:09.881Z,14.67
2018-02-20T14:38:39.533Z,13.93
2018-02-20T14:41:07.613Z,14.67
2018-02-20T14:43:35.633Z,14.83
2018-02-20T14:46:03.260Z,14.33
2018-02-20T14:48:31.029Z,13.87
2018-02-20T14:50:58.676Z,14.87
2018-02-20T14:53:27.136Z,14.27
2018-02-20T14:55:54.888Z,14.07
2018-02-20T14:58:22.939Z,13.53
2018-02-20T15:00:50.615Z,14.00
2018-02-20T15:03:18.518Z,13.50
2018-02-20T15:05:46.096Z,14.17
2018-02-20T15:08:13.790Z,13.93
2018-02-20T15:10:41.357Z,13.57
2018-02-20T15:13:08.929Z,12.17
2018-02-20T15:15:36.573Z,13.73
2018-02-20T15:18:04.418Z,13.60
2018-02-20T15:20:32.074Z,12.90
2018-02-20T15:22:59.595Z,13.87
2018-02-20T15:25:27.652Z,14.70
2018-02-20T15:27:55.676Z,13.63
2018-02-20T15:30:23.279Z,12.47
2018-02-20T15:32:50.881Z,12.77
2018-02-20T15:35:18.541Z,12.20
2018-02-20T15:37:46.191Z,14.03
2018-02-20T15:40:13.751Z,13.27
2018-02-20T15:42:41.358Z,13.53
2018-02-20T15:45:10.760Z,12.80
2018-02-20T15:47:38.398Z,12.40
2018-02-20T15:50:05.995Z,13.13
2018-02-20T15:52:33.687Z,13.10
2018-02-20T15:55:01.977Z,12.70
2018-02-20T15:57:29.644Z,12.27
2018-02-20T15:59:57.275Z,13.53
2018-02-20T16:02:25.322Z,13.50
2018-02-20T16:04:52.942Z,14.10
2018-02-20T16:07:20.504Z,13.33
2018-02-20T16:09:48.161Z,14.77
2018-02-20T16:12:15.802Z,15.00
2018-02-20T16:14:43.388Z,14.83
2018-02-20T16:17:10.932Z,15.60
2018-02-20T16:19:38.515Z,13.70
2018-02-20T16:22:06.164Z,13.33
2018-02-20T16:24:33.831Z,13.50
2018-02-20T16:27:01.908Z,13.30
2018-02-20T16:29:29.529Z,13.20
2018-02-20T16:31:57.142Z,14.53
2018-02-20T16:34:24.776Z,13.40
2018-02-20T16:36:52.321Z,13.30
2018-02-20T16:39:19.952Z,13.50
2018-02-20T16:41:47.562Z,14.07
2018-02-20T16:44:15.126Z,13.10
2018-02-20T16:46:42.704Z,13.43
2018-02-20T16:49:10.829Z,14.23
2018-02-20T16:51:38.471Z,13.70
2018-02-20T16:54:06.048Z,13.10
2018-02-20T16:56:34.568Z,13.73
2018-02-20T16:59:02.190Z,13.27
2018-02-20T17:01:29.819Z,14.40
2018-02-20T17:03:57.455Z,14.60
2018-02-20T17:06:25.465Z,14.80
2018-02-20T17:08:53.151Z,15.43
2018-02-20T17:11:20.829Z,13.10
2018-02-20T17:13:48.585Z,14.80
2018-02-20T17:16:16.277Z,15.50
2018-02-20T17:18:43.865Z,15.03
2018-02-20T17:21:11.552Z,15.03
2018-02-20T17:23:39.193Z,16.77
2018-02-20T17:26:06.829Z,20.13
2018-02-20T17:28:34.437Z,20.20
2018-02-20T17:31:02.079Z,20.30
2018-02-20T17:33:30.180Z,21.57
2018-02-20T17:35:57.818Z,22.53
2018-02-20T17:38:25.941Z,20.57
2018-02-20T17:40:53.950Z,18.87
2018-02-20T17:43:21.467Z,20.53
2018-02-20T17:45:49.439Z,20.70
2018-02-20T17:48:17.080Z,19.53
2018-02-20T17:50:47.262Z,21.17
2018-02-20T17:53:14.789Z,18.80
2018-02-20T17:55:42.401Z,21.73
2018-02-20T17:58:09.956Z,19.10
2018-02-20T18:00:37.565Z,18.83
2018-02-20T18:03:05.192Z,20.53
2018-02-20T18:05:33.256Z,19.00
2018-02-20T18:08:00.801Z,20.60
2018-02-20T18:10:28.388Z,21.00
2018-02-20T18:12:55.976Z,19.53
2018-02-20T18:15:33.914Z,20.70
2018-02-20T18:18:01.521Z,21.10
2018-02-20T18:20:29.068Z,20.83
2018-02-20T18:22:56.748Z,19.93
2018-02-20T18:25:24.355Z,20.90
2018-02-20T18:27:51.953Z,21.47
2018-02-20T18:30:19.977Z,20.43
2018-02-20T18:32:47.652Z,20.70
2018-02-20T18:35:15.666Z,21.73
2018-02-20T18:37:43.285Z,19.90
2018-02-20T18:40:10.949Z,20.47
2018-02-20T18:42:38.640Z,19.30
2018-02-20T18:45:06.327Z,19.30
2018-02-20T18:47:33.955Z,19.60
2018-02-20T18:50:01.596Z,20.53
2018-02-20T18:52:29.172Z,19.80
2018-02-20T18:54:57.276Z,20.40
2018-02-20T18:57:24.890Z,20.63
2018-02-20T18:59:52.504Z,19.90
2018-02-20T19:02:20.191Z,20.27
2018-02-20T19:04:47.785Z,18.00
2018-02-20T19:07:15.410Z,19.77
2018-02-20T19:09:43.058Z,19.40
2018-02-20T19:12:10.719Z,18.60
2018-02-20T19:14:38.332Z,17.67
2018-02-20T19:17:06.455Z,19.40
2018-02-20T19:19:34.105Z,20.30
2018-02-20T19:22:01.724Z,16.97
2018-02-20T19:24:29.454Z,17.73
2018-02-20T19:26:57.182Z,17.93
2018-02-20T19:29:24.772Z,19.10
2018-02-20T19:31:52.411Z,18.67
2018-02-20T19:34:20.075Z,18.93
2018-02-20T19:36:47.753Z,19.27
2018-02-20T19:39:15.377Z,18.63
2018-02-20T19:41:43.005Z,17.80
2018-02-20T19:44:10.949Z,16.13
2018-02-20T19:46:39.865Z,18.13
2018-02-20T19:49:07.527Z,17.47
2018-02-20T19:51:35.547Z,18.13
2018-02-20T19:54:03.124Z,19.53
2018-02-20T19:56:30.771Z,17.23
2018-02-20T19:58:58.416Z,16.63
2018-02-20T20:01:26.119Z,16.63
2018-02-20T20:03:54.319Z,15.40
2018-02-20T20:06:21.934Z,17.07
2018-02-20T20:08:49.638Z,18.43
2018-02-20T20:11:17.278Z,17.60
2018-02-20T20:13:45.324Z,17.20
2018-02-20T20:16:12.970Z,16.70
2018-02-20T20:18:40.638Z,16.37
2018-02-20T20:21:08.295Z,16.37
2018-02-20T20:23:35.964Z,17.33
2018-02-20T20:26:03.649Z,18.13
2018-02-20T20:28:31.265Z,16.43
2018-02-20T20:30:58.837Z,17.20
2018-02-20T20:33:26.364Z,16.60
2018-02-20T20:35:53.963Z,17.53
2018-02-20T20:38:21.634Z,17.27
2018-02-20T20:40:49.661Z,15.53
2018-02-20T20:43:17.338Z,16.60
2018-02-20T20:45:45.019Z,15.17
2018-02-20T20:48:12.590Z,15.73
2018-02-20T20:50:40.196Z,15.17
2018-02-20T20:53:07.807Z,15.97
2018-02-20T20:55:35.425Z,16.97
2018-02-20T20:58:03.021Z,15.17
2018-02-20T21:00:30.628Z,16.70
2018-02-20T21:02:58.310Z,15.83
2018-02-20T21:05:25.964Z,15.73
2018-02-20T21:07:53.713Z,15.80
2018-02-20T21:10:21.376Z,14.80
2018-02-20T21:12:49.047Z,16.73
2018-02-20T21:15:16.692Z,15.37
2018-02-20T21:17:44.324Z,15.60
2018-02-20T21:20:12.347Z,15.10
2018-02-20T21:22:39.931Z,18.17
2018-02-20T21:25:07.549Z,16.77
2018-02-20T21:27:35.216Z,17.77
2018-02-20T21:30:02.872Z,16.93
2018-02-20T21:32:30.428Z,15.13
2018-02-20T21:34:58.833Z,16.33
2018-02-20T21:37:26.688Z,17.63
2018-02-20T21:39:57.456Z,13.87
2018-02-20T21:42:25.053Z,16.43
2018-02-20T21:44:52.709Z,16.57
2018-02-20T21:47:20.900Z,13.97
2018-02-20T21:49:50.450Z,13.93
2018-02-20T21:52:18.334Z,13.60
2018-02-20T21:54:47.463Z,15.70
2018-02-20T21:57:15.211Z,15.40
2018-02-20T21:59:43.908Z,14.53
2018-02-20T22:02:11.778Z,14.53
2018-02-20T22:04:39.330Z,14.27
2018-02-20T22:07:06.891Z,15.23
2018-02-20T22:09:34.497Z,15.30
2018-02-20T22:12:03.414Z,13.10
2018-02-20T22:14:31.352Z,14.53
2018-02-20T22:16:58.953Z,13.67
2018-02-20T22:19:26.584Z,13.63
2018-02-20T22:21:54.199Z,12.30
2018-02-20T22:24:21.744Z,13.33
2018-02-20T22:26:49.335Z,13.37
2018-02-20T22:29:18.164Z,13.30
2018-02-20T22:31:46.136Z,13.80
2018-02-20T22:34:14.154Z,14.00
2018-02-20T22:36:41.747Z,12.80
2018-02-20T22:39:09.732Z,12.57
2018-02-20T22:41:37.724Z,13.33
2018-02-20T22:44:05.248Z,14.17
2018-02-20T22:46:32.753Z,13.80
2018-02-20T22:49:00.303Z,14.03
2018-02-20T22:51:27.852Z,13.23
2018-02-20T22:53:55.475Z,14.90
2018-02-20T22:56:23.044Z,15.80
2018-02-20T22:58:50.639Z,14.53
2018-02-20T23:01:18.212Z,14.00
2018-02-20T23:03:45.786Z,14.53
2018-02-20T23:06:13.378Z,14.93
2018-02-20T23:08:41.379Z,15.23
2018-02-20T23:11:08.966Z,15.20
2018-02-20T23:13:36.535Z,14.20
2018-02-20T23:16:04.071Z,15.27
2018-02-20T23:18:31.626Z,15.03
2018-02-20T23:20:59.197Z,14.70
2018-02-20T23:23:26.773Z,13.80
2018-02-20T23:25:54.333Z,16.60
2018-02-20T23:28:21.935Z,16.53
2018-02-20T23:30:49.480Z,15.53
2018-02-20T23:33:17.451Z,15.80
2018-02-20T23:35:45.052Z,15.90
2018-02-20T23:38:12.634Z,15.47
2018-02-20T23:40:40.220Z,16.13
2018-02-20T23:43:08.201Z,15.17
2018-02-20T23:45:35.756Z,16.43
2018-02-20T23:48:03.366Z,15.97
2018-02-20T23:50:30.946Z,15.50
2018-02-20T23:52:58.564Z,16.90
2018-02-20T23:55:26.084Z,16.20
2018-02-20T23:57:54.086Z,15.50
